Hot Springs Recreation Area, Montana
Current Conditions -  °F | °C
As of 10:55 AM on Sunday 21 Dec 2014 (Local Time) from KSMN Reporting Station
Overcast Overcast  
Wind Chill:   Ceiling: 5500
Heat Index:   Visibility: 10mi
Dew Point:   Wind: 8mph
Humidity: 70%   Direction: 340°NNW
Pressure: 29.72"   Gusts: NA
Location:  45.36°N, 113.46°W
Report Text: KSMN 211755Z AUTO 34007KT 10SM FEW028 SCT045 OVC055 06/01 A2972 RMK AO1 60005 10060 20010 52030
Loading
Personal Weather Stations






























Interactive Weather Map New forecast layout! Learn more

10-Day Weather Forecast

Advertisements
Track Severe Weather on mobile